Time;durP1;ratioP1;P1;durP2;ratioP2;P2;SDS_P1;SDS_P2;PMS_P1;PMS_P2;Temp;Humidity;BMP_temperature;BMP_pressure;BME280_temperature;BME280_humidity;BME280_pressure;Samples;Min_cycle;Max_cycle;Signal;HPM_P1;HPM_P2
2021/09/25 00:01:08;;;;;;;10.65;7.25;;;17.40;78.20;;;;;;5028777;28;20122;-66
2021/09/25 00:03:33;;;;;;;8.02;6.07;;;17.50;78.20;;;;;;5030948;28;20428;-66
2021/09/25 00:05:59;;;;;;;11.95;6.50;;;17.40;78.00;;;;;;5031059;28;20025;-66
2021/09/25 00:08:24;;;;;;;8.73;6.25;;;17.50;77.70;;;;;;5030670;28;20480;-66
2021/09/25 00:10:50;;;;;;;10.88;6.93;;;17.50;77.70;;;;;;5030819;28;20111;-66
2021/09/25 00:13:16;;;;;;;7.40;5.57;;;17.50;77.40;;;;;;5030331;28;20091;-66
2021/09/25 00:15:41;;;;;;;9.38;5.85;;;17.50;77.20;;;;;;5028763;28;20474;-66
2021/09/25 00:18:07;;;;;;;8.57;5.63;;;17.50;77.30;;;;;;5028342;28;20040;-66
2021/09/25 00:20:34;;;;;;;7.32;5.05;;;17.50;77.20;;;;;;5029140;28;20040;-65
2021/09/25 00:23:00;;;;;;;10.70;6.05;;;17.50;77.10;;;;;;5030105;28;20026;-66
2021/09/25 00:25:25;;;;;;;5.60;4.88;;;17.50;76.90;;;;;;5031960;28;20030;-66
2021/09/25 00:27:51;;;;;;;9.02;6.70;;;17.50;77.00;;;;;;5026470;28;20026;-66
2021/09/25 00:30:17;;;;;;;7.20;4.82;;;17.50;76.80;;;;;;5026301;28;20029;-66
2021/09/25 00:32:43;;;;;;;6.47;4.10;;;17.50;76.80;;;;;;5027654;28;20053;-66
2021/09/25 00:35:10;;;;;;;5.70;4.35;;;17.50;76.80;;;;;;5029006;28;20433;-66
2021/09/25 00:37:37;;;;;;;7.18;4.05;;;17.50;76.80;;;;;;5029259;28;20117;-66
2021/09/25 00:40:04;;;;;;;4.88;4.28;;;17.50;76.60;;;;;;5027951;28;20032;-66
2021/09/25 00:42:29;;;;;;;14.75;5.45;;;17.50;76.50;;;;;;5029285;28;20071;-66
2021/09/25 00:44:55;;;;;;;10.13;4.75;;;17.40;76.70;;;;;;5027362;28;20144;-66
2021/09/25 00:47:20;;;;;;;7.97;4.65;;;17.50;76.30;;;;;;5027296;28;20048;-65
2021/09/25 00:49:46;;;;;;;4.25;3.60;;;17.50;76.40;;;;;;5027758;28;20029;-66
2021/09/25 00:52:13;;;;;;;6.25;4.95;;;17.50;76.20;;;;;;5026805;28;20028;-66
2021/09/25 00:54:39;;;;;;;7.05;5.45;;;17.50;76.30;;;;;;5027520;28;20051;-66
2021/09/25 00:57:05;;;;;;;7.63;5.22;;;17.50;76.20;;;;;;5043648;28;20515;-65
2021/09/25 00:59:32;;;;;;;8.18;4.43;;;17.50;76.20;;;;;;5025046;28;20034;-66
2021/09/25 01:01:57;;;;;;;6.30;4.68;;;17.40;76.00;;;;;;5025011;28;20399;-66
2021/09/25 01:04:23;;;;;;;7.85;4.60;;;17.50;76.10;;;;;;5029892;28;20025;-66
2021/09/25 01:06:49;;;;;;;8.60;3.83;;;17.50;76.10;;;;;;5028895;28;20460;-66
2021/09/25 01:09:14;;;;;;;7.07;4.63;;;17.50;75.70;;;;;;5029282;28;20494;-66
2021/09/25 01:11:40;;;;;;;8.25;4.78;;;17.50;75.70;;;;;;5029036;28;20553;-66
2021/09/25 01:14:06;;;;;;;6.72;4.15;;;17.50;75.70;;;;;;5029573;28;20033;-66
2021/09/25 01:16:32;;;;;;;6.30;4.18;;;17.50;75.60;;;;;;5028174;28;20497;-66
2021/09/25 01:18:58;;;;;;;5.72;4.13;;;17.50;75.50;;;;;;5026632;28;20030;-66
2021/09/25 01:21:23;;;;;;;5.43;3.45;;;17.50;75.40;;;;;;5027551;28;20104;-66
2021/09/25 01:23:49;;;;;;;6.18;3.97;;;17.60;75.20;;;;;;5028053;28;20030;-66
2021/09/25 01:26:15;;;;;;;5.18;3.63;;;17.60;75.00;;;;;;5028296;28;20025;-67
2021/09/25 01:28:42;;;;;;;4.97;3.80;;;17.50;75.10;;;;;;5030875;28;20387;-66
2021/09/25 01:31:11;;;;;;;6.25;4.10;;;17.60;75.20;;;;;;5026291;28;20053;-66
2021/09/25 01:33:42;;;;;;;7.15;4.88;;;17.50;75.10;;;;;;5043991;28;20087;-66
2021/09/25 01:36:08;;;;;;;6.65;4.22;;;17.50;75.30;;;;;;5031303;28;20036;-66
2021/09/25 01:38:34;;;;;;;4.97;4.10;;;17.50;75.30;;;;;;5026475;28;20072;-66
2021/09/25 01:40:59;;;;;;;3.92;3.53;;;17.50;75.10;;;;;;5027192;28;20061;-66
2021/09/25 01:43:25;;;;;;;4.43;3.70;;;17.60;75.20;;;;;;5029263;28;20026;-66
2021/09/25 01:45:51;;;;;;;6.40;3.85;;;17.50;75.30;;;;;;5029380;28;20014;-66
2021/09/25 01:48:18;;;;;;;5.90;3.95;;;17.50;75.10;;;;;;5026580;28;20531;-66
2021/09/25 01:50:43;;;;;;;5.50;3.72;;;17.50;75.20;;;;;;5028804;28;20407;-66
2021/09/25 01:53:09;;;;;;;5.93;4.10;;;17.50;75.30;;;;;;5028070;28;20029;-66
2021/09/25 01:55:36;;;;;;;6.80;4.45;;;17.50;75.30;;;;;;5028533;28;20044;-66
2021/09/25 01:58:01;;;;;;;5.45;4.03;;;17.50;75.30;;;;;;5028724;28;20029;-66
2021/09/25 02:00:27;;;;;;;5.97;3.80;;;17.50;75.20;;;;;;5027608;28;20072;-66
2021/09/25 02:02:54;;;;;;;7.75;3.83;;;17.50;75.40;;;;;;5030647;28;20010;-66
2021/09/25 02:05:21;;;;;;;6.45;3.58;;;17.40;75.50;;;;;;5030342;28;20079;-66
2021/09/25 02:07:48;;;;;;;5.72;3.90;;;17.50;75.20;;;;;;5025414;28;20573;-66
2021/09/25 02:10:15;;;;;;;8.70;3.92;;;17.50;75.40;;;;;;5028873;28;20021;-66
2021/09/25 02:12:42;;;;;;;7.05;3.75;;;17.50;75.50;;;;;;5027923;28;20495;-66
2021/09/25 02:15:08;;;;;;;4.85;3.47;;;17.50;75.60;;;;;;5032807;28;20052;-66
2021/09/25 02:17:35;;;;;;;4.40;3.47;;;17.50;75.60;;;;;;5034695;28;20021;-66
2021/09/25 02:20:00;;;;;;;4.82;3.40;;;17.50;75.50;;;;;;5032588;28;20021;-66
2021/09/25 02:22:26;;;;;;;4.20;3.50;;;17.40;75.40;;;;;;5033621;28;20638;-66
2021/09/25 02:24:52;;;;;;;6.28;3.58;;;17.40;75.40;;;;;;5042912;28;20047;-66
2021/09/25 02:27:17;;;;;;;5.25;3.53;;;17.40;75.60;;;;;;5031254;28;20025;-66
2021/09/25 02:29:43;;;;;;;7.95;3.65;;;17.40;75.70;;;;;;5032819;28;20025;-65
2021/09/25 02:32:09;;;;;;;4.50;3.67;;;17.40;75.60;;;;;;5032507;28;20025;-65
2021/09/25 02:34:36;;;;;;;4.10;3.10;;;17.50;75.60;;;;;;5032501;28;20064;-65
2021/09/25 02:37:04;;;;;;;4.72;3.35;;;17.50;75.40;;;;;;5032605;28;20025;-65
2021/09/25 02:39:30;;;;;;;5.10;3.85;;;17.40;75.40;;;;;;5030840;28;20057;-65
2021/09/25 02:41:55;;;;;;;6.38;3.55;;;17.40;75.20;;;;;;5031180;28;20029;-65
2021/09/25 02:44:21;;;;;;;6.85;3.42;;;17.40;75.50;;;;;;5033388;28;20028;-65
2021/09/25 02:46:49;;;;;;;8.38;3.75;;;17.40;75.30;;;;;;5031077;28;20030;-66
2021/09/25 02:49:19;;;;;;;7.28;3.28;;;17.40;75.40;;;;;;5032291;28;20022;-66
2021/09/25 02:51:46;;;;;;;3.45;3.10;;;17.40;75.40;;;;;;5032828;28;20029;-66
2021/09/25 02:54:11;;;;;;;5.30;3.67;;;17.40;75.60;;;;;;5025986;28;20068;-66
2021/09/25 02:56:37;;;;;;;6.07;3.47;;;17.30;75.70;;;;;;5031412;28;20075;-66
2021/09/25 02:59:03;;;;;;;5.13;3.20;;;17.30;75.80;;;;;;5028890;28;20475;-66
2021/09/25 03:01:29;;;;;;;4.00;3.25;;;17.30;75.80;;;;;;5032388;28;20087;-66
2021/09/25 03:03:55;;;;;;;4.03;3.30;;;17.30;75.90;;;;;;5031924;28;20014;-67
2021/09/25 03:06:22;;;;;;;4.50;3.63;;;17.20;76.00;;;;;;5028203;28;20376;-66
2021/09/25 03:08:48;;;;;;;4.95;3.25;;;17.20;76.20;;;;;;5027866;28;20159;-66
2021/09/25 03:11:13;;;;;;;4.85;3.47;;;17.20;76.30;;;;;;5031118;28;20037;-66
2021/09/25 03:13:39;;;;;;;6.88;3.13;;;17.20;76.30;;;;;;5029243;28;20029;-66
2021/09/25 03:16:04;;;;;;;4.30;3.70;;;17.20;76.10;;;;;;5029427;28;20036;-65
2021/09/25 03:18:30;;;;;;;3.90;3.35;;;17.20;76.30;;;;;;5031074;28;20034;-65
2021/09/25 03:20:55;;;;;;;5.50;3.28;;;17.20;76.20;;;;;;5030272;28;20040;-66
2021/09/25 03:23:21;;;;;;;5.28;3.67;;;17.20;76.20;;;;;;5032018;28;20104;-66
2021/09/25 03:25:46;;;;;;;3.92;3.17;;;17.20;76.30;;;;;;5028722;28;20056;-66
2021/09/25 03:28:12;;;;;;;4.47;3.20;;;17.20;76.40;;;;;;5030802;28;20100;-66
2021/09/25 03:30:38;;;;;;;4.60;2.97;;;17.20;76.10;;;;;;5029690;28;20029;-66
2021/09/25 03:33:04;;;;;;;4.03;3.47;;;17.20;76.20;;;;;;5031280;28;20034;-66
2021/09/25 03:35:30;;;;;;;4.53;3.15;;;17.20;76.00;;;;;;5028623;28;20033;-66
2021/09/25 03:37:55;;;;;;;3.55;3.13;;;17.20;76.00;;;;;;5027765;28;20511;-65
2021/09/25 03:40:21;;;;;;;3.97;3.50;;;17.20;76.10;;;;;;5019171;28;20033;-66
2021/09/25 03:42:47;;;;;;;5.82;3.33;;;17.20;76.00;;;;;;5031055;28;20043;-66
2021/09/25 03:45:13;;;;;;;9.90;3.55;;;17.10;76.10;;;;;;5024262;28;20018;-66
2021/09/25 03:47:38;;;;;;;3.67;3.33;;;17.10;76.20;;;;;;5031526;28;20487;-66
2021/09/25 03:50:05;;;;;;;4.65;3.15;;;17.10;76.10;;;;;;5029102;28;20422;-66
2021/09/25 03:52:30;;;;;;;4.18;3.25;;;17.00;76.30;;;;;;5031011;28;20040;-67
2021/09/25 03:54:56;;;;;;;5.07;3.72;;;17.10;76.30;;;;;;5031281;28;20022;-67
2021/09/25 03:57:21;;;;;;;4.35;3.00;;;17.00;76.40;;;;;;5031652;28;20037;-66
2021/09/25 03:59:47;;;;;;;4.63;3.10;;;17.10;76.30;;;;;;5031272;28;20095;-67
2021/09/25 04:02:13;;;;;;;5.32;3.50;;;17.00;76.40;;;;;;5029486;28;20057;-67
2021/09/25 04:04:38;;;;;;;5.40;3.60;;;17.10;76.10;;;;;;5030436;28;20045;-67
2021/09/25 04:07:04;;;;;;;4.70;3.42;;;17.00;76.40;;;;;;5030063;28;20038;-66
2021/09/25 04:09:29;;;;;;;4.40;3.08;;;17.00;76.20;;;;;;5032203;28;20100;-66
2021/09/25 04:11:55;;;;;;;4.97;3.40;;;17.00;76.20;;;;;;5029070;28;20025;-66
2021/09/25 04:14:21;;;;;;;5.30;3.85;;;17.00;76.00;;;;;;5029931;28;20048;-66
2021/09/25 04:16:47;;;;;;;4.07;3.22;;;17.00;76.20;;;;;;5030129;28;20427;-67
2021/09/25 04:19:13;;;;;;;4.35;3.45;;;17.00;76.20;;;;;;5031916;28;20028;-67
2021/09/25 04:21:39;;;;;;;3.67;3.30;;;17.00;76.30;;;;;;5031381;28;20029;-67
2021/09/25 04:24:05;;;;;;;3.42;2.78;;;17.00;76.20;;;;;;5055712;22;21487;-69
2021/09/25 04:26:31;;;;;;;5.10;3.67;;;17.00;76.30;;;;;;5016891;28;20088;-70
2021/09/25 04:28:59;;;;;;;6.47;3.25;;;16.90;76.20;;;;;;5028128;28;20025;-68
2021/09/25 04:31:25;;;;;;;7.10;3.08;;;16.90;76.40;;;;;;5032849;28;20052;-69
2021/09/25 04:33:51;;;;;;;5.30;3.10;;;17.00;76.40;;;;;;5031518;28;20033;-69
2021/09/25 04:36:17;;;;;;;4.43;3.22;;;17.00;76.50;;;;;;5031813;28;20024;-69
2021/09/25 04:38:42;;;;;;;3.47;2.70;;;17.00;76.20;;;;;;5030084;28;20037;-69
2021/09/25 04:41:08;;;;;;;6.22;2.95;;;17.00;76.40;;;;;;5031404;28;20025;-69
2021/09/25 04:43:34;;;;;;;4.93;3.17;;;17.00;76.50;;;;;;5034906;28;20021;-68
2021/09/25 04:46:00;;;;;;;7.25;3.35;;;17.00;76.30;;;;;;5030525;28;20026;-69
2021/09/25 04:48:26;;;;;;;4.13;3.42;;;17.00;76.50;;;;;;5016930;28;20028;-69
2021/09/25 04:50:52;;;;;;;9.05;3.13;;;17.00;76.50;;;;;;5035578;28;20430;-67
2021/09/25 04:53:17;;;;;;;4.97;3.00;;;17.00;76.60;;;;;;5013262;28;20033;-69
2021/09/25 04:55:43;;;;;;;3.53;2.80;;;17.00;76.20;;;;;;5033580;28;20394;-70
2021/09/25 04:58:09;;;;;;;5.60;3.45;;;17.00;76.10;;;;;;5025854;28;20094;-68
2021/09/25 05:00:36;;;;;;;3.78;2.90;;;17.00;76.20;;;;;;5026656;28;20030;-69
2021/09/25 05:03:02;;;;;;;8.68;3.45;;;17.00;75.80;;;;;;5030072;28;20025;-70
2021/09/25 05:05:28;;;;;;;4.53;3.25;;;17.00;76.00;;;;;;5031391;28;20656;-70
2021/09/25 05:07:53;;;;;;;9.35;3.75;;;17.00;76.10;;;;;;5027750;28;20022;-69
2021/09/25 05:10:19;;;;;;;4.40;3.30;;;17.00;76.40;;;;;;5026134;28;20404;-68
2021/09/25 05:12:45;;;;;;;4.93;3.30;;;17.00;76.50;;;;;;5033130;28;20022;-68
2021/09/25 05:15:11;;;;;;;6.07;3.20;;;17.00;76.50;;;;;;5031496;28;20022;-69
2021/09/25 05:17:37;;;;;;;5.43;3.70;;;17.00;76.50;;;;;;5035218;28;20033;-68
2021/09/25 05:20:08;;;;;;;6.28;3.55;;;17.00;76.30;;;;;;5022956;28;20025;-68
2021/09/25 05:22:34;;;;;;;3.95;3.00;;;17.00;76.40;;;;;;5020985;28;20033;-68
2021/09/25 05:24:59;;;;;;;8.00;3.28;;;17.10;76.00;;;;;;5017079;28;20037;-68
2021/09/25 05:27:25;;;;;;;5.28;3.65;;;17.10;75.90;;;;;;5048047;28;20104;-68
2021/09/25 05:29:51;;;;;;;5.90;3.45;;;17.20;75.60;;;;;;5004786;28;20037;-70
2021/09/25 05:32:17;;;;;;;5.70;3.30;;;17.20;75.30;;;;;;5038728;28;20699;-69
2021/09/25 05:34:42;;;;;;;3.33;3.03;;;17.20;75.20;;;;;;5036426;28;20035;-70
2021/09/25 05:37:12;;;;;;;6.35;3.63;;;17.20;74.90;;;;;;5029983;28;20420;-70
2021/09/25 05:39:38;;;;;;;4.78;3.10;;;17.20;74.90;;;;;;5031270;28;20076;-69
2021/09/25 05:42:04;;;;;;;8.68;4.22;;;17.20;74.70;;;;;;5030662;28;20022;-69
2021/09/25 05:44:30;;;;;;;4.85;3.38;;;17.20;74.50;;;;;;5012231;28;20037;-70
2021/09/25 05:46:56;;;;;;;8.60;4.10;;;17.30;74.30;;;;;;5030488;28;20053;-69
2021/09/25 05:49:21;;;;;;;3.83;3.38;;;17.30;74.20;;;;;;5043780;28;20500;-69
2021/09/25 05:51:47;;;;;;;4.72;3.10;;;17.40;74.00;;;;;;5041850;28;20032;-69
2021/09/25 05:54:13;;;;;;;4.95;3.20;;;17.40;73.80;;;;;;5041261;28;20029;-69
2021/09/25 05:56:38;;;;;;;4.07;3.00;;;17.30;73.80;;;;;;5025268;28;20079;-69
2021/09/25 05:59:04;;;;;;;5.18;3.35;;;17.40;73.90;;;;;;5038143;28;20040;-69
2021/09/25 06:01:29;;;;;;;6.43;3.65;;;17.40;73.80;;;;;;5048039;28;20079;-68
2021/09/25 06:03:55;;;;;;;5.53;3.35;;;17.40;73.70;;;;;;5028915;28;20033;-68
2021/09/25 06:06:21;;;;;;;6.40;3.10;;;17.40;73.20;;;;;;5017945;28;20041;-68
2021/09/25 06:08:46;;;;;;;5.22;3.67;;;17.40;73.10;;;;;;5030590;28;20068;-70
2021/09/25 06:11:12;;;;;;;4.90;3.00;;;17.50;73.20;;;;;;5022984;28;20022;-70
2021/09/25 06:13:37;;;;;;;3.70;2.80;;;17.50;72.80;;;;;;5037889;28;20046;-69
2021/09/25 06:16:03;;;;;;;5.20;3.60;;;17.60;73.10;;;;;;5033893;28;20045;-69
2021/09/25 06:18:29;;;;;;;4.95;3.10;;;17.60;72.80;;;;;;5046950;28;20025;-69
2021/09/25 06:20:54;;;;;;;5.38;3.10;;;17.70;72.40;;;;;;5029443;28;20066;-69
2021/09/25 06:23:20;;;;;;;5.25;3.60;;;17.80;72.20;;;;;;5029321;28;20029;-69
2021/09/25 06:25:46;;;;;;;4.47;3.38;;;17.70;72.10;;;;;;5033474;28;20040;-71
2021/09/25 06:28:11;;;;;;;5.93;3.28;;;17.90;71.80;;;;;;5044668;28;20461;-68
2021/09/25 06:30:40;;;;;;;7.25;3.42;;;17.90;71.30;;;;;;5030768;28;20112;-68
2021/09/25 06:33:10;;;;;;;5.13;2.95;;;18.00;71.50;;;;;;5049653;28;20032;-70
2021/09/25 06:35:36;;;;;;;7.10;4.20;;;17.90;71.40;;;;;;5039032;28;20032;-70
2021/09/25 06:38:01;;;;;;;4.95;3.28;;;17.90;71.20;;;;;;5045312;28;20036;-69
2021/09/25 06:40:27;;;;;;;4.63;3.45;;;18.00;71.40;;;;;;5032391;28;20095;-69
2021/09/25 06:42:53;;;;;;;4.40;2.92;;;18.10;71.20;;;;;;5039706;28;20167;-71
2021/09/25 06:45:18;;;;;;;4.50;3.00;;;18.20;70.60;;;;;;5036348;28;20021;-72
2021/09/25 06:47:44;;;;;;;5.93;2.90;;;18.20;70.20;;;;;;5032775;28;20022;-71
2021/09/25 06:50:10;;;;;;;6.82;3.05;;;18.40;70.00;;;;;;5005663;28;20017;-72
2021/09/25 06:52:35;;;;;;;4.47;3.03;;;18.50;69.60;;;;;;5032029;28;20033;-72
2021/09/25 06:55:03;;;;;;;8.20;3.53;;;18.50;69.60;;;;;;5033119;28;20155;-71
2021/09/25 06:57:30;;;;;;;3.20;2.88;;;18.60;69.00;;;;;;5025746;28;20494;-73
2021/09/25 06:59:55;;;;;;;5.55;3.58;;;18.70;69.20;;;;;;5028729;28;20033;-73
2021/09/25 07:02:21;;;;;;;3.35;2.80;;;18.70;69.10;;;;;;5024036;28;20033;-71
2021/09/25 07:04:47;;;;;;;5.03;3.30;;;18.80;69.00;;;;;;5022188;28;20021;-72
2021/09/25 07:07:12;;;;;;;3.45;2.95;;;18.80;68.40;;;;;;5029190;28;20053;-72
2021/09/25 07:09:41;;;;;;;5.40;3.45;;;19.00;67.80;;;;;;5025452;28;20043;-71
2021/09/25 07:12:15;;;;;;;3.20;2.65;;;19.20;67.30;;;;;;5027583;28;20025;-69
2021/09/25 07:14:41;;;;;;;3.65;3.08;;;19.40;66.60;;;;;;5010400;28;20055;-71
2021/09/25 07:17:07;;;;;;;6.80;3.33;;;19.50;66.70;;;;;;5025783;28;20495;-71
2021/09/25 07:19:32;;;;;;;5.65;3.00;;;19.50;65.90;;;;;;5031803;28;20037;-70
2021/09/25 07:21:58;;;;;;;2.55;2.30;;;19.70;65.30;;;;;;5027494;28;20483;-71
2021/09/25 07:24:23;;;;;;;9.10;5.45;;;19.90;65.60;;;;;;5032806;28;20029;-72
2021/09/25 07:26:52;;;;;;;185.25;113.22;;;20.00;64.70;;;;;;5030014;28;20029;-70
2021/09/25 07:29:20;;;;;;;6.13;3.85;;;19.90;64.80;;;;;;5017584;28;20026;-71
2021/09/25 07:31:46;;;;;;;7.13;3.75;;;20.20;64.40;;;;;;5026912;28;20098;-71
2021/09/25 07:34:12;;;;;;;6.40;3.47;;;20.30;63.50;;;;;;5014024;28;20127;-71
2021/09/25 07:36:40;;;;;;;6.50;3.53;;;20.40;63.70;;;;;;5012663;28;20029;-71
2021/09/25 07:39:06;;;;;;;6.20;2.35;;;20.50;63.10;;;;;;5012194;28;20491;-71
2021/09/25 07:41:31;;;;;;;5.78;2.60;;;20.50;62.50;;;;;;5029247;28;20025;-70
2021/09/25 07:43:57;;;;;;;4.30;2.53;;;20.50;62.70;;;;;;5028854;28;20453;-71
2021/09/25 07:46:24;;;;;;;5.43;2.60;;;20.60;63.10;;;;;;5036456;28;20032;-71
2021/09/25 07:48:49;;;;;;;7.13;2.92;;;20.50;62.40;;;;;;5032869;28;20032;-69
2021/09/25 07:51:15;;;;;;;3.13;2.35;;;20.30;63.40;;;;;;5036914;28;20397;-71
2021/09/25 07:53:41;;;;;;;6.63;3.45;;;20.20;63.20;;;;;;5031579;28;20026;-71
2021/09/25 07:56:06;;;;;;;4.32;2.50;;;20.30;63.70;;;;;;5044048;28;20048;-70
2021/09/25 07:58:32;;;;;;;7.38;3.17;;;20.40;63.30;;;;;;5025368;28;20033;-73
2021/09/25 08:00:57;;;;;;;4.63;2.92;;;20.50;63.10;;;;;;5049652;28;20055;-71
2021/09/25 08:03:23;;;;;;;4.35;2.38;;;20.50;62.70;;;;;;5019967;28;20067;-70
2021/09/25 08:05:49;;;;;;;7.38;2.70;;;20.60;62.30;;;;;;5047654;28;20033;-71
2021/09/25 08:08:14;;;;;;;7.68;3.10;;;20.60;62.60;;;;;;5029496;28;20079;-71
2021/09/25 08:10:40;;;;;;;5.22;3.35;;;20.60;61.90;;;;;;5027834;28;20025;-72
2021/09/25 08:13:06;;;;;;;5.13;3.08;;;20.60;62.40;;;;;;5035688;28;20399;-70
2021/09/25 08:15:32;;;;;;;5.00;2.90;;;20.70;62.20;;;;;;5029065;28;20063;-70
2021/09/25 08:17:57;;;;;;;3.25;2.95;;;20.70;62.00;;;;;;5039653;28;20040;-71
2021/09/25 08:20:24;;;;;;;3.72;2.20;;;20.70;61.90;;;;;;5040587;28;20513;-71
2021/09/25 08:22:50;;;;;;;7.30;3.10;;;20.90;62.00;;;;;;5047147;28;20021;-71
2021/09/25 08:25:17;;;;;;;5.30;2.92;;;21.00;60.80;;;;;;5035401;28;20045;-71
2021/09/25 08:27:43;;;;;;;3.47;3.17;;;21.10;60.80;;;;;;5046182;28;20021;-71
2021/09/25 08:30:11;;;;;;;4.68;2.78;;;21.00;60.60;;;;;;5023432;28;20020;-69
2021/09/25 08:32:36;;;;;;;6.72;3.22;;;21.00;61.40;;;;;;5038203;28;20030;-71
2021/09/25 08:35:05;;;;;;;6.00;3.15;;;21.10;60.60;;;;;;5028163;28;20033;-71
2021/09/25 08:37:31;;;;;;;5.07;3.08;;;21.20;60.60;;;;;;5047889;28;20025;-71
2021/09/25 08:39:56;;;;;;;5.63;3.58;;;21.20;60.50;;;;;;5038748;28;20032;-69
2021/09/25 08:42:22;;;;;;;4.05;3.45;;;21.10;60.70;;;;;;5014844;28;20095;-72
2021/09/25 08:44:52;;;;;;;4.78;3.05;;;21.10;60.60;;;;;;5030319;28;20025;-72
2021/09/25 08:47:19;;;;;;;5.07;3.20;;;21.30;60.10;;;;;;5048567;28;20109;-72
2021/09/25 08:49:45;;;;;;;3.85;2.55;;;21.50;60.00;;;;;;5043464;28;20543;-72
2021/09/25 08:52:10;;;;;;;4.30;3.40;;;21.80;59.60;;;;;;5040476;28;20112;-70
2021/09/25 08:54:36;;;;;;;4.78;3.25;;;22.20;57.60;;;;;;5044598;28;20567;-70
2021/09/25 08:57:05;;;;;;;5.65;2.85;;;22.50;56.80;;;;;;5043302;28;20387;-69
2021/09/25 08:59:31;;;;;;;6.20;2.60;;;22.70;56.00;;;;;;5050638;28;20067;-70
2021/09/25 09:02:10;;;;;;;3.50;2.92;;;22.90;55.40;;;;;;5043776;28;20053;-71
2021/09/25 09:04:45;;;;;;;9.45;5.47;;;23.00;55.20;;;;;;5016156;28;20104;-72
2021/09/25 09:07:29;;;;;;;8.40;5.35;;;23.40;53.90;;;;;;5044961;28;20028;-72
2021/09/25 09:09:57;;;;;;;7.40;4.88;;;23.40;54.10;;;;;;5030110;28;20100;-70
2021/09/25 09:12:28;;;;;;;24.23;13.73;;;23.50;52.80;;;;;;5025003;28;20049;-71
2021/09/25 09:14:55;;;;;;;8.40;3.90;;;23.40;53.30;;;;;;5033911;28;20022;-72
2021/09/25 09:17:32;;;;;;;5.10;2.97;;;23.30;53.50;;;;;;5047894;28;20044;-72
2021/09/25 09:20:06;;;;;;;9.32;3.30;;;22.90;54.30;;;;;;5038875;28;20036;-72
2021/09/25 09:22:32;;;;;;;11.93;6.82;;;22.80;55.60;;;;;;5037442;28;20517;-71
2021/09/25 09:24:58;;;;;;;6.85;3.58;;;23.00;54.80;;;;;;5021472;28;20033;-71
2021/09/25 09:27:26;;;;;;;5.45;3.55;;;23.40;53.70;;;;;;5034189;28;20025;-71
2021/09/25 09:30:13;;;;;;;7.70;4.22;;;23.70;52.50;;;;;;5042017;28;20029;-72
2021/09/25 09:32:45;;;;;;;5.80;3.45;;;23.70;52.80;;;;;;5041671;28;20036;-72
2021/09/25 09:35:18;;;;;;;4.55;3.78;;;23.80;52.30;;;;;;5051880;28;20421;-70
2021/09/25 09:37:46;;;;;;;4.00;3.00;;;23.80;51.90;;;;;;5041074;28;20025;-72
2021/09/25 09:40:11;;;;;;;6.75;3.67;;;24.00;52.30;;;;;;5038091;28;20049;-71
2021/09/25 09:42:45;;;;;;;8.98;3.60;;;24.00;51.80;;;;;;5030936;28;20103;-71
2021/09/25 09:45:11;;;;;;;7.68;3.17;;;24.00;51.50;;;;;;5049743;28;20094;-73
2021/09/25 09:47:46;;;;;;;45.88;25.48;;;24.00;51.40;;;;;;5038175;28;20498;-71
2021/09/25 09:50:15;;;;;;;27.00;15.70;;;24.20;51.40;;;;;;5045050;28;20021;-72
2021/09/25 09:52:41;;;;;;;15.35;4.20;;;24.40;51.00;;;;;;5040973;28;20036;-73
2021/09/25 09:55:07;;;;;;;25.55;15.07;;;24.40;51.00;;;;;;5035705;28;20041;-71
2021/09/25 09:57:34;;;;;;;7.75;2.60;;;24.50;50.70;;;;;;5036855;28;20035;-71
2021/09/25 10:00:00;;;;;;;5.40;2.95;;;24.40;50.20;;;;;;5034123;28;20049;-72
2021/09/25 10:02:26;;;;;;;5.97;3.00;;;24.50;50.50;;;;;;5046536;28;20052;-71
2021/09/25 10:04:51;;;;;;;9.15;3.22;;;24.50;49.60;;;;;;5039229;28;20474;-70
2021/09/25 10:07:18;;;;;;;3.85;3.00;;;24.40;50.50;;;;;;5024658;28;20018;-71
2021/09/25 10:09:43;;;;;;;7.05;3.28;;;24.10;51.30;;;;;;5047991;28;20025;-71
2021/09/25 10:12:14;;;;;;;6.05;3.65;;;23.90;51.50;;;;;;5043912;28;20086;-72
2021/09/25 10:14:42;;;;;;;3.20;2.78;;;23.70;52.10;;;;;;5040624;28;20079;-72
2021/09/25 10:17:10;;;;;;;4.60;2.60;;;23.70;52.50;;;;;;5050778;28;20429;-72
2021/09/25 10:19:37;;;;;;;6.07;2.80;;;24.00;50.80;;;;;;5038440;28;20071;-72
2021/09/25 10:22:07;;;;;;;8.80;3.40;;;24.10;51.50;;;;;;5045794;28;20025;-72
2021/09/25 10:24:47;;;;;;;4.40;3.13;;;24.10;50.50;;;;;;5050861;22;22177;-70
2021/09/25 10:27:13;;;;;;;4.40;2.75;;;24.30;50.50;;;;;;5050348;28;20033;-70
2021/09/25 10:29:48;;;;;;;2.83;2.10;;;24.50;49.90;;;;;;5039461;28;20025;-69
2021/09/25 10:32:21;;;;;;;4.90;2.92;;;24.40;50.10;;;;;;5052766;28;20363;-70
2021/09/25 10:35:17;;;;;;;5.25;3.17;;;24.60;49.60;;;;;;5037429;28;20035;-70
2021/09/25 10:37:45;;;;;;;6.57;2.78;;;24.50;49.40;;;;;;5019345;28;20039;-70
2021/09/25 10:40:14;;;;;;;6.50;3.33;;;24.60;50.60;;;;;;5033828;28;20483;-70
2021/09/25 10:42:42;;;;;;;6.35;2.97;;;24.60;49.60;;;;;;5047330;28;20045;-70
2021/09/25 10:45:25;;;;;;;4.45;2.92;;;24.90;49.60;;;;;;5036923;28;20569;-70
2021/09/25 10:48:15;;;;;;;5.80;2.88;;;25.00;48.60;;;;;;5048109;28;20040;-70
2021/09/25 10:50:56;;;;;;;4.30;3.13;;;25.10;48.90;;;;;;5040157;28;20104;-69
2021/09/25 10:53:23;;;;;;;;;;;25.10;48.40;;;;;;5049160;28;20029;-70
2021/09/25 10:55:58;;;;;;;3.08;2.47;;;25.00;48.80;;;;;;5040289;28;19912;-70
2021/09/25 10:58:23;;;;;;;6.15;3.10;;;25.00;49.20;;;;;;5057562;28;20115;-70
2021/09/25 11:00:53;;;;;;;4.13;2.70;;;24.90;49.10;;;;;;5047493;28;20109;-70
2021/09/25 11:03:44;;;;;;;4.68;2.60;;;24.60;49.80;;;;;;5024161;28;20026;-70
2021/09/25 11:06:20;;;;;;;4.32;3.05;;;24.70;50.00;;;;;;5043721;28;20049;-70
2021/09/25 11:09:14;;;;;;;3.47;2.35;;;24.70;49.60;;;;;;5047704;28;20139;-70
2021/09/25 11:11:45;;;;;;;2.72;2.03;;;24.60;50.40;;;;;;5023257;28;20037;-70
2021/09/25 11:14:23;;;;;;;3.78;2.50;;;24.50;51.30;;;;;;5047819;28;20116;-70
2021/09/25 11:16:56;;;;;;;5.88;2.70;;;24.50;50.50;;;;;;5024310;28;20513;-70
2021/09/25 11:19:22;;;;;;;3.38;2.00;;;24.30;50.20;;;;;;5045194;28;20036;-70
2021/09/25 11:22:16;;;;;;;2.90;2.55;;;24.20;51.20;;;;;;5046554;28;20025;-70
2021/09/25 11:24:43;;;;;;;2.88;2.55;;;23.90;52.20;;;;;;5046671;28;20021;-69
2021/09/25 11:27:14;;;;;;;3.08;2.20;;;23.90;51.90;;;;;;5036041;28;20025;-69
2021/09/25 11:29:55;;;;;;;3.58;2.17;;;23.90;52.40;;;;;;5046939;28;20526;-69
2021/09/25 11:32:26;;;;;;;2.85;2.28;;;24.00;53.10;;;;;;5042874;28;20033;-69
2021/09/25 11:34:52;;;;;;;3.55;2.40;;;24.10;52.20;;;;;;5037517;28;20395;-69
2021/09/25 11:37:18;;;;;;;3.03;2.35;;;24.10;51.90;;;;;;5049178;28;20105;-69
2021/09/25 11:39:46;;;;;;;3.00;2.25;;;24.10;51.70;;;;;;5037545;28;20120;-69
2021/09/25 11:42:14;;;;;;;4.03;2.20;;;24.10;51.50;;;;;;5041953;28;20054;-69
2021/09/25 11:44:49;;;;;;;2.80;2.10;;;24.10;51.20;;;;;;5040127;28;20018;-69
2021/09/25 11:47:33;;;;;;;2.00;1.80;;;24.20;51.30;;;;;;5048883;28;20105;-68
2021/09/25 11:50:12;;;;;;;2.63;1.75;;;24.20;50.90;;;;;;5029682;28;20036;-69
2021/09/25 11:52:40;;;;;;;3.35;2.15;;;24.30;50.40;;;;;;5045437;28;20102;-69
2021/09/25 11:55:07;;;;;;;2.58;2.00;;;24.50;49.50;;;;;;5034527;28;20411;-69
2021/09/25 11:57:33;;;;;;;2.85;1.98;;;24.80;48.80;;;;;;5047970;28;20035;-68
2021/09/25 11:59:59;;;;;;;3.25;1.85;;;24.80;48.80;;;;;;5037065;28;20024;-68
2021/09/25 12:02:42;;;;;;;2.30;2.03;;;25.00;48.60;;;;;;5027168;28;20483;-68
2021/09/25 12:05:37;;;;;;;2.35;1.35;;;25.10;48.20;;;;;;5042045;28;20028;-68
2021/09/25 12:08:14;;;;;;;2.55;1.33;;;25.30;48.30;;;;;;5038380;28;20399;-70
2021/09/25 12:10:42;;;;;;;2.00;1.80;;;25.40;47.50;;;;;;5043598;28;20504;-68
2021/09/25 12:13:35;;;;;;;2.63;1.60;;;25.40;48.10;;;;;;5035070;28;20029;-70
2021/09/25 12:16:03;;;;;;;4.30;2.00;;;25.60;47.50;;;;;;5022528;28;20029;-70
2021/09/25 12:18:33;;;;;;;1.90;1.50;;;25.60;47.30;;;;;;5039928;28;20022;-70
2021/09/25 12:21:06;;;;;;;3.50;1.70;;;25.50;47.20;;;;;;5047346;28;20028;-67
2021/09/25 12:23:51;;;;;;;1.63;1.50;;;25.50;47.70;;;;;;5020954;28;20064;-69
2021/09/25 12:26:25;;;;;;;3.50;1.60;;;25.40;47.80;;;;;;5041515;28;20372;-68
2021/09/25 12:28:56;;;;;;;3.40;1.50;;;25.40;47.30;;;;;;5041905;28;20022;-69
2021/09/25 12:31:39;;;;;;;2.07;1.30;;;25.40;47.50;;;;;;5041404;28;20029;-68
2021/09/25 12:34:11;;;;;;;1.15;0.88;;;25.50;48.00;;;;;;5045858;28;20272;-69
2021/09/25 12:36:39;;;;;;;2.88;1.33;;;25.40;47.70;;;;;;5036432;28;20112;-69
2021/09/25 12:39:16;;;;;;;4.35;1.50;;;25.40;46.90;;;;;;5028388;28;20026;-69
2021/09/25 12:41:47;;;;;;;2.47;1.40;;;25.20;47.50;;;;;;5044800;28;20022;-70
2021/09/25 12:44:19;;;;;;;2.55;1.10;;;25.30;47.20;;;;;;5033298;28;20440;-69
2021/09/25 12:46:53;;;;;;;2.38;1.63;;;25.40;47.10;;;;;;5045798;28;20036;-69
2021/09/25 12:49:34;;;;;;;1.30;1.10;;;25.30;46.80;;;;;;5033273;28;20021;-70